createdAt,value
2023-01-17T00:02:51.849Z,34.37
2023-01-17T00:08:13.721Z,36.23
2023-01-17T00:13:16.724Z,35.83
2023-01-17T00:18:19.663Z,35.50
2023-01-17T00:24:00.599Z,34.93
2023-01-17T00:29:03.902Z,40.60
2023-01-17T00:34:06.762Z,45.10
2023-01-17T00:39:09.628Z,36.93
2023-01-17T00:44:30.913Z,33.53
2023-01-17T00:49:52.290Z,38.63
2023-01-17T00:55:13.586Z,42.97
2023-01-17T01:00:38.064Z,31.92
2023-01-17T01:05:59.368Z,34.57
2023-01-17T01:11:25.093Z,35.43
2023-01-17T01:16:46.381Z,41.07
2023-01-17T01:22:08.172Z,38.00
2023-01-17T01:27:29.972Z,39.58
2023-01-17T01:32:52.427Z,34.70
2023-01-17T01:37:55.586Z,37.40
2023-01-17T01:43:00.421Z,41.73
2023-01-17T01:48:46.495Z,37.43
2023-01-17T01:53:59.853Z,30.07
2023-01-17T01:59:07.226Z,32.70
2023-01-17T02:04:11.077Z,36.23
2023-01-17T02:09:17.329Z,28.67
2023-01-17T02:14:22.554Z,27.57
2023-01-17T02:19:59.979Z,26.90
2023-01-17T02:25:27.347Z,25.77
2023-01-17T02:31:17.250Z,24.63
2023-01-17T02:36:33.256Z,25.13
2023-01-17T02:41:44.757Z,25.10
2023-01-17T02:46:55.305Z,27.13
2023-01-17T02:52:25.809Z,31.03
2023-01-17T02:58:00.894Z,26.83
2023-01-17T03:03:45.486Z,25.87
2023-01-17T03:08:51.331Z,34.93
2023-01-17T03:13:58.379Z,30.43
2023-01-17T03:19:01.537Z,26.50
2023-01-17T03:24:04.799Z,28.87
2023-01-17T03:29:07.602Z,31.73
2023-01-17T03:34:10.755Z,34.47
2023-01-17T03:39:13.646Z,26.27
2023-01-17T03:44:16.525Z,26.73
2023-01-17T03:49:19.264Z,30.23
2023-01-17T03:54:22.362Z,29.13
2023-01-17T03:59:25.398Z,29.07
2023-01-17T04:04:28.213Z,32.53
2023-01-17T04:09:34.648Z,35.33
2023-01-17T04:14:37.666Z,26.13
2023-01-17T04:19:41.348Z,21.37
2023-01-17T04:24:44.207Z,27.93
2023-01-17T04:29:47.063Z,27.97
2023-01-17T04:34:50.512Z,21.07
2023-01-17T04:39:53.443Z,27.10
2023-01-17T04:44:56.449Z,23.40
2023-01-17T04:49:59.672Z,26.23
2023-01-17T04:55:02.698Z,34.57
2023-01-17T05:00:06.472Z,27.40
2023-01-17T05:05:10.416Z,28.40
2023-01-17T05:10:13.407Z,26.63
2023-01-17T05:15:16.772Z,27.80
2023-01-17T05:20:21.383Z,21.67
2023-01-17T05:25:31.151Z,29.70
2023-01-17T05:30:35.206Z,21.57
2023-01-17T05:35:38.594Z,21.70
2023-01-17T05:40:41.614Z,19.57
2023-01-17T05:45:47.495Z,17.33
2023-01-17T05:50:52.207Z,23.47
2023-01-17T05:55:55.128Z,13.70
2023-01-17T06:00:58.191Z,8.23
2023-01-17T06:06:01.247Z,24.40
2023-01-17T06:11:04.363Z,60.23
2023-01-17T06:16:07.928Z,18.20
2023-01-17T06:21:10.729Z,7.50
2023-01-17T06:26:13.688Z,10.40
2023-01-17T06:31:16.606Z,7.87
2023-01-17T06:36:19.953Z,6.03
2023-01-17T06:41:23.507Z,6.83
2023-01-17T06:46:26.441Z,5.40
2023-01-17T06:51:29.328Z,8.83
2023-01-17T06:56:33.600Z,6.97
2023-01-17T07:01:36.867Z,8.00
2023-01-17T07:06:39.950Z,8.50
2023-01-17T07:11:42.736Z,4.63
2023-01-17T07:16:46.238Z,5.00
2023-01-17T07:21:55.481Z,5.40
2023-01-17T07:26:58.794Z,4.93
2023-01-17T07:32:03.314Z,3.60
2023-01-17T07:37:06.622Z,3.30
2023-01-17T07:42:09.784Z,4.13
2023-01-17T07:47:13.023Z,3.73
2023-01-17T07:52:18.180Z,3.07
2023-01-17T07:57:21.279Z,3.53
2023-01-17T08:02:24.351Z,3.37
2023-01-17T08:07:27.303Z,2.30
2023-01-17T08:12:30.227Z,3.20
2023-01-17T08:17:33.014Z,2.67
2023-01-17T08:22:35.904Z,1.60
2023-01-17T08:27:39.700Z,5.07
2023-01-17T08:32:42.724Z,7.63
2023-01-17T08:37:48.359Z,3.93
2023-01-17T08:43:01.003Z,4.30
2023-01-17T08:48:04.031Z,5.93
2023-01-17T08:53:07.054Z,2.67
2023-01-17T08:58:10.085Z,1.87
2023-01-17T09:03:14.190Z,5.57
2023-01-17T09:08:17.261Z,1.40
2023-01-17T09:13:20.116Z,1.67
2023-01-17T09:18:23.207Z,0.90
2023-01-17T09:23:29.572Z,1.23
2023-01-17T09:28:39.773Z,42.67
2023-01-17T09:33:43.067Z,4.67
2023-01-17T09:38:46.689Z,2.30
2023-01-17T09:44:08.110Z,3.00
2023-01-17T09:49:46.919Z,0.82
2023-01-17T09:54:51.139Z,0.65
2023-01-17T10:00:20.709Z,0.68
2023-01-17T10:06:08.096Z,4.37
2023-01-17T10:11:50.418Z,5.57
2023-01-17T10:17:16.358Z,26.92
2023-01-17T10:22:51.326Z,3.77
2023-01-17T10:27:59.140Z,6.17
2023-01-17T10:33:13.815Z,1.23
2023-01-17T10:38:18.963Z,0.70
2023-01-17T10:43:59.741Z,0.57
2023-01-17T10:49:03.813Z,5.43
2023-01-17T10:54:42.881Z,11.73
2023-01-17T10:59:45.809Z,2.07
2023-01-17T11:04:54.601Z,1.63
2023-01-17T11:09:58.977Z,1.40
2023-01-17T11:15:19.873Z,10.40
2023-01-17T11:20:30.472Z,25.63
2023-01-17T11:25:34.664Z,9.07
2023-01-17T11:30:37.553Z,2.07
2023-01-17T11:35:46.797Z,2.13
2023-01-17T11:40:50.976Z,2.83
2023-01-17T11:46:15.790Z,1.40
2023-01-17T11:51:35.229Z,45.67
2023-01-17T11:56:38.499Z,5.77
2023-01-17T12:01:49.942Z,1.07
2023-01-17T12:07:15.361Z,1.37
2023-01-17T12:13:10.215Z,1.60
2023-01-17T12:18:45.921Z,1.93
2023-01-17T12:24:25.516Z,5.10
2023-01-17T12:29:54.756Z,4.20
2023-01-17T12:35:08.834Z,2.47
2023-01-17T12:40:32.952Z,1.47
2023-01-17T12:45:43.753Z,2.70
2023-01-17T12:51:00.666Z,5.72
2023-01-17T12:56:17.871Z,4.70
2023-01-17T13:01:23.328Z,4.30
2023-01-17T13:07:10.335Z,9.77
2023-01-17T13:12:18.771Z,3.00
2023-01-17T13:17:27.564Z,6.17
2023-01-17T13:22:32.891Z,13.23
2023-01-17T13:28:12.840Z,9.73
2023-01-17T13:33:47.481Z,29.13
2023-01-17T13:39:11.507Z,8.87
2023-01-17T13:44:21.725Z,5.23
2023-01-17T13:49:34.097Z,7.17
2023-01-17T13:55:00.696Z,9.00
2023-01-17T14:00:21.531Z,10.83
2023-01-17T14:05:30.755Z,28.10
2023-01-17T14:10:54.194Z,15.03
2023-01-17T14:15:57.576Z,17.63
2023-01-17T14:21:26.321Z,9.23
2023-01-17T14:26:44.015Z,17.27
2023-01-17T14:31:49.386Z,8.63
2023-01-17T14:37:06.881Z,10.80
2023-01-17T14:42:22.572Z,21.43
2023-01-17T14:47:30.236Z,15.83
2023-01-17T14:52:33.169Z,18.63
2023-01-17T14:57:36.067Z,14.30
2023-01-17T15:02:44.040Z,14.33
2023-01-17T15:07:54.246Z,23.40
2023-01-17T15:13:05.702Z,9.47
2023-01-17T15:18:19.805Z,9.13
2023-01-17T15:23:25.132Z,13.20
2023-01-17T15:28:29.087Z,10.50
2023-01-17T15:33:34.029Z,22.17
2023-01-17T15:38:40.450Z,21.97
2023-01-17T15:43:45.307Z,28.27
2023-01-17T15:48:48.372Z,21.17
2023-01-17T15:53:51.295Z,19.87
2023-01-17T15:58:54.278Z,17.93
2023-01-17T16:03:58.638Z,28.87
2023-01-17T16:09:01.300Z,21.53
2023-01-17T16:14:07.588Z,20.93
2023-01-17T16:19:10.433Z,28.67
2023-01-17T16:24:13.407Z,27.27
2023-01-17T16:29:16.373Z,27.17
2023-01-17T16:34:19.576Z,19.57
2023-01-17T16:39:22.664Z,22.20
2023-01-17T16:44:26.197Z,20.57
2023-01-17T16:49:32.772Z,13.73
2023-01-17T16:54:35.740Z,14.27
2023-01-17T16:59:50.220Z,10.63
2023-01-17T17:04:53.763Z,10.57
2023-01-17T17:09:56.747Z,10.53
2023-01-17T17:14:59.510Z,12.57
2023-01-17T17:20:02.457Z,9.47
2023-01-17T17:25:06.771Z,12.83
2023-01-17T17:30:11.125Z,12.50
2023-01-17T17:35:14.183Z,12.77
2023-01-17T17:40:17.294Z,9.47
2023-01-17T17:45:22.375Z,11.07
2023-01-17T17:50:25.090Z,12.43
2023-01-17T17:55:29.364Z,12.83
2023-01-17T18:00:32.094Z,9.60
2023-01-17T18:05:35.107Z,14.37
2023-01-17T18:10:39.614Z,10.90
2023-01-17T18:15:42.517Z,11.30
2023-01-17T18:20:45.371Z,10.27
2023-01-17T18:25:48.391Z,9.03
2023-01-17T18:30:51.324Z,9.63
2023-01-17T18:36:00.121Z,9.67
2023-01-17T18:41:13.743Z,11.20
2023-01-17T18:46:19.494Z,11.77
2023-01-17T18:51:22.874Z,18.47
2023-01-17T18:56:26.471Z,19.53
2023-01-17T19:01:35.078Z,14.87
2023-01-17T19:06:41.906Z,16.13
2023-01-17T19:11:47.525Z,10.63
2023-01-17T19:16:53.156Z,10.47
2023-01-17T19:22:01.600Z,9.70
2023-01-17T19:27:11.422Z,6.27
2023-01-17T19:32:14.449Z,8.00
2023-01-17T19:37:17.200Z,5.43
2023-01-17T19:42:22.969Z,8.17
2023-01-17T19:47:25.856Z,8.13
2023-01-17T19:52:31.143Z,4.73
2023-01-17T19:57:34.980Z,3.07
2023-01-17T20:02:38.444Z,4.33
2023-01-17T20:07:41.892Z,2.53
2023-01-17T20:12:45.233Z,3.67
2023-01-17T20:17:48.060Z,5.73
2023-01-17T20:22:50.939Z,2.10
2023-01-17T20:27:54.943Z,3.73
2023-01-17T20:32:58.178Z,4.23
2023-01-17T20:38:01.169Z,3.87
2023-01-17T20:43:04.119Z,5.57
2023-01-17T20:48:07.625Z,4.67
2023-01-17T20:53:10.793Z,3.70
2023-01-17T20:58:13.870Z,3.20
2023-01-17T21:03:16.829Z,3.60
2023-01-17T21:08:19.701Z,3.37
2023-01-17T21:13:23.805Z,2.83
2023-01-17T21:18:31.747Z,2.60
2023-01-17T21:23:36.295Z,3.10
2023-01-17T21:28:43.224Z,2.93
2023-01-17T21:33:47.613Z,3.80
2023-01-17T21:38:57.244Z,3.07
2023-01-17T21:44:04.187Z,2.00
2023-01-17T21:49:11.835Z,2.33
2023-01-17T21:54:14.967Z,2.20
2023-01-17T21:59:17.824Z,2.77
2023-01-17T22:04:20.748Z,4.27
2023-01-17T22:09:23.991Z,3.80
2023-01-17T22:14:26.713Z,4.00
2023-01-17T22:19:30.136Z,3.83
2023-01-17T22:24:34.391Z,3.97
2023-01-17T22:29:37.991Z,26.37
2023-01-17T22:34:41.196Z,9.37
2023-01-17T22:39:44.842Z,5.97
2023-01-17T22:44:47.929Z,4.07
2023-01-17T22:49:51.445Z,4.10
2023-01-17T22:54:54.558Z,2.07
2023-01-17T22:59:57.299Z,1.50
2023-01-17T23:05:00.131Z,1.80
2023-01-17T23:10:03.154Z,1.27
2023-01-17T23:15:25.517Z,1.63
2023-01-17T23:25:31.233Z,2.37
2023-01-17T23:30:36.536Z,9.87
2023-01-17T23:35:43.313Z,7.27
2023-01-17T23:41:04.840Z,5.27
2023-01-17T23:46:12.633Z,5.07
2023-01-17T23:51:15.695Z,5.43
2023-01-17T23:56:23.233Z,6.30
